Time;durP1;ratioP1;P1;durP2;ratioP2;P2;SDS_P1;SDS_P2;PMS_P1;PMS_P2;Temp;Humidity;BMP_temperature;BMP_pressure;BME280_temperature;BME280_humidity;BME280_pressure;Samples;Min_cycle;Max_cycle;Signal;HPM_P1;HPM_P2
2024/01/27 00:02:16;;;;;;;;;;;20.10;46.20;;;;;;5052618;28;19966;-56
2024/01/27 00:04:45;;;;;;;;;;;20.10;46.20;;;;;;5083859;28;19921;-56
2024/01/27 00:07:11;;;;;;;;;;;20.10;46.20;;;;;;5047168;28;19921;-54
2024/01/27 00:09:40;;;;;;;;;;;20.10;46.20;;;;;;5055540;28;19927;-52
2024/01/27 00:12:08;;;;;;;;;;;20.10;46.20;;;;;;5057123;28;19925;-54
2024/01/27 00:14:34;;;;;;;;;;;20.10;46.20;;;;;;5046659;28;20358;-55
2024/01/27 00:17:00;;;;;;;;;;;20.10;46.20;;;;;;5076531;28;19930;-57
2024/01/27 00:19:27;;;;;;;;;;;20.10;46.20;;;;;;5054280;28;19977;-54
2024/01/27 00:21:54;;;;;;;;;;;20.10;46.20;;;;;;5076811;28;19921;-55
2024/01/27 00:24:21;;;;;;;;;;;20.10;46.20;;;;;;5094037;28;19921;-56
2024/01/27 00:26:49;;;;;;;;;;;20.10;46.20;;;;;;5059996;28;19924;-56
2024/01/27 00:29:16;;;;;;;;;;;20.00;46.20;;;;;;5058181;28;19928;-57
2024/01/27 00:31:43;;;;;;;;;;;20.10;46.20;;;;;;5074951;28;19921;-54
2024/01/27 00:34:10;;;;;;;;;;;20.00;46.20;;;;;;5060080;28;19956;-57
2024/01/27 00:36:37;;;;;;;;;;;20.00;46.10;;;;;;5063798;28;19970;-55
2024/01/27 00:39:04;;;;;;;;;;;20.00;46.10;;;;;;5056814;28;20373;-54
2024/01/27 00:41:31;;;;;;;;;;;20.00;46.20;;;;;;5042510;28;19920;-56
2024/01/27 00:43:59;;;;;;;;;;;20.00;46.10;;;;;;5089859;28;19932;-56
2024/01/27 00:46:26;;;;;;;;;;;20.00;46.10;;;;;;5075305;28;19924;-56
2024/01/27 00:48:52;;;;;;;;;;;20.10;46.20;;;;;;5088198;28;19999;-57
2024/01/27 00:51:19;;;;;;;;;;;20.00;46.10;;;;;;5048767;28;19925;-57
2024/01/27 00:53:46;;;;;;;;;;;20.00;46.10;;;;;;5074440;28;19943;-55
2024/01/27 00:56:12;;;;;;;;;;;20.00;46.10;;;;;;5059756;28;19951;-56
2024/01/27 00:58:39;;;;;;;;;;;20.00;46.10;;;;;;5066049;28;19966;-54
2024/01/27 01:01:07;;;;;;;;;;;20.00;46.10;;;;;;5075356;28;19920;-53
2024/01/27 01:03:37;;;;;;;;;;;20.00;46.10;;;;;;5076934;28;19981;-56
2024/01/27 01:06:04;;;;;;;;;;;20.00;46.20;;;;;;5065612;28;19974;-54
2024/01/27 01:08:32;;;;;;;;;;;20.00;46.10;;;;;;5064599;28;19927;-56
2024/01/27 01:11:00;;;;;;;;;;;20.00;46.10;;;;;;5073168;28;19966;-58
2024/01/27 01:13:26;;;;;;;;;;;20.00;46.20;;;;;;5074716;28;19921;-56
2024/01/27 01:15:53;;;;;;;;;;;20.00;46.10;;;;;;5057441;28;19966;-55
2024/01/27 01:18:21;;;;;;;;;;;20.00;46.10;;;;;;5061886;28;19927;-57
2024/01/27 01:20:48;;;;;;;;;;;20.00;46.70;;;;;;5068979;28;19924;-57
2024/01/27 01:23:15;;;;;;;;;;;20.00;46.10;;;;;;5075169;28;19981;-56
2024/01/27 01:25:41;;;;;;;;;;;20.00;46.10;;;;;;5059307;28;19924;-56
2024/01/27 01:28:08;;;;;;;;;;;20.00;46.20;;;;;;5059997;28;19932;-56
2024/01/27 01:30:36;;;;;;;;;;;20.00;46.10;;;;;;5062531;28;19921;-57
2024/01/27 01:33:03;;;;;;;;;;;20.00;46.10;;;;;;5056371;28;19975;-58
2024/01/27 01:35:31;;;;;;;;;;;20.00;46.10;;;;;;5067894;28;19921;-57
2024/01/27 01:37:58;;;;;;;;;;;20.00;46.10;;;;;;5050202;28;20003;-57
2024/01/27 01:40:25;;;;;;;;;;;20.00;46.10;;;;;;5072157;28;19920;-57
2024/01/27 01:42:52;;;;;;;;;;;20.00;46.10;;;;;;5057271;28;19920;-56
2024/01/27 01:45:18;;;;;;;;;;;20.00;46.10;;;;;;5071688;28;20018;-57
2024/01/27 01:47:45;;;;;;;;;;;20.00;46.10;;;;;;5042675;28;19921;-55
2024/01/27 01:50:12;;;;;;;;;;;20.00;46.10;;;;;;5056112;28;19956;-57
2024/01/27 01:52:40;;;;;;;;;;;20.00;46.10;;;;;;5073442;28;19924;-57
2024/01/27 01:55:07;;;;;;;;;;;20.00;46.10;;;;;;5056900;28;20018;-54
2024/01/27 01:57:34;;;;;;;;;;;20.00;46.10;;;;;;5056003;28;19982;-54
2024/01/27 02:00:00;;;;;;;;;;;20.00;46.10;;;;;;5059448;28;19924;-54
2024/01/27 02:02:27;;;;;;;;;;;20.00;46.10;;;;;;5058706;28;19978;-56
2024/01/27 02:04:54;;;;;;;;;;;20.00;46.10;;;;;;5058726;28;19973;-56
2024/01/27 02:07:21;;;;;;;;;;;20.00;46.10;;;;;;5047075;28;19920;-56
2024/01/27 02:09:49;;;;;;;;;;;20.00;46.10;;;;;;5046316;28;19928;-55
2024/01/27 02:12:15;;;;;;;;;;;20.00;46.00;;;;;;5072396;28;19924;-56
2024/01/27 02:14:42;;;;;;;;;;;20.00;46.00;;;;;;5056185;28;19921;-57
2024/01/27 02:17:09;;;;;;;;;;;20.00;46.00;;;;;;5056298;28;19931;-57
2024/01/27 02:19:36;;;;;;;;;;;19.90;45.90;;;;;;5057087;28;19974;-57
2024/01/27 02:22:03;;;;;;;;;;;19.90;45.90;;;;;;5056619;28;19921;-56
2024/01/27 02:24:31;;;;;;;;;;;19.90;45.90;;;;;;5073495;28;19974;-57
2024/01/27 02:26:57;;;;;;;;;;;19.90;45.90;;;;;;5076027;28;19920;-57
2024/01/27 02:29:27;;;;;;;;;;;19.90;45.90;;;;;;5055677;28;19920;-56
2024/01/27 02:31:54;;;;;;;;;;;19.90;45.90;;;;;;5074211;28;19999;-53
2024/01/27 02:34:20;;;;;;;;;;;19.90;45.90;;;;;;5057785;28;19920;-54
2024/01/27 02:36:47;;;;;;;;;;;19.90;45.90;;;;;;5057373;28;20320;-54
2024/01/27 02:39:14;;;;;;;;;;;19.90;45.90;;;;;;5084856;28;19966;-55
2024/01/27 02:41:42;;;;;;;;;;;19.90;45.90;;;;;;5055399;28;19920;-55
2024/01/27 02:44:09;;;;;;;;;;;19.90;45.90;;;;;;5056864;28;19921;-53
2024/01/27 02:46:35;;;;;;;;;;;19.90;45.90;;;;;;5056442;28;20195;-55
2024/01/27 02:49:02;;;;;;;;;;;19.90;45.90;;;;;;5058553;28;19970;-55
2024/01/27 02:51:29;;;;;;;;;;;19.90;45.90;;;;;;5056046;28;19920;-55
2024/01/27 02:53:55;;;;;;;;;;;19.90;45.80;;;;;;5056087;28;20309;-55
2024/01/27 02:56:22;;;;;;;;;;;19.90;45.90;;;;;;5073666;28;19927;-55
2024/01/27 02:58:50;;;;;;;;;;;19.90;45.90;;;;;;5073157;28;19928;-54
2024/01/27 03:01:17;;;;;;;;;;;19.90;45.90;;;;;;5073173;28;19932;-54
2024/01/27 03:03:44;;;;;;;;;;;19.90;45.90;;;;;;5057079;28;19924;-54
2024/01/27 03:06:10;;;;;;;;;;;19.90;45.90;;;;;;5068553;28;20312;-54
2024/01/27 03:08:37;;;;;;;;;;;19.90;45.90;;;;;;5073279;28;19974;-54
2024/01/27 03:11:04;;;;;;;;;;;19.90;45.90;;;;;;5074761;28;20010;-55
2024/01/27 03:13:31;;;;;;;;;;;19.90;45.90;;;;;;5073405;28;19982;-57
2024/01/27 03:15:59;;;;;;;;;;;19.90;45.80;;;;;;5073315;28;19926;-57
2024/01/27 03:18:26;;;;;;;;;;;19.90;45.80;;;;;;5071917;28;19946;-55
2024/01/27 03:20:53;;;;;;;;;;;19.90;45.80;;;;;;5060880;28;19921;-57
2024/01/27 03:23:20;;;;;;;;;;;19.90;45.80;;;;;;5055988;28;19931;-58
2024/01/27 03:25:46;;;;;;;;;;;19.90;45.80;;;;;;5055545;28;20013;-57
2024/01/27 03:28:13;;;;;;;;;;;19.90;45.80;;;;;;5055369;28;19921;-57
2024/01/27 03:30:40;;;;;;;;;;;19.90;45.80;;;;;;5055467;28;20316;-57
2024/01/27 03:33:10;;;;;;;;;;;19.90;45.80;;;;;;5058548;28;19974;-57
2024/01/27 03:35:37;;;;;;;;;;;19.90;45.80;;;;;;5054961;28;19967;-56
2024/01/27 03:38:04;;;;;;;;;;;19.90;45.80;;;;;;5069961;28;19927;-57
2024/01/27 03:40:30;;;;;;;;;;;19.90;45.80;;;;;;5061342;28;19974;-57
2024/01/27 03:42:57;;;;;;;;;;;19.90;45.80;;;;;;5054340;28;19921;-56
2024/01/27 03:45:24;;;;;;;;;;;19.90;45.80;;;;;;5067732;28;19925;-57
2024/01/27 03:47:51;;;;;;;;;;;19.90;45.80;;;;;;5044914;28;19920;-55
2024/01/27 03:50:19;;;;;;;;;;;20.00;45.90;;;;;;5062776;28;20316;-58
2024/01/27 03:52:45;;;;;;;;;;;19.90;45.80;;;;;;5057769;28;19970;-57
2024/01/27 03:55:12;;;;;;;;;;;19.90;45.80;;;;;;5047178;28;19927;-57
2024/01/27 03:57:39;;;;;;;;;;;20.00;45.80;;;;;;5029142;28;20367;-56
2024/01/27 04:00:07;;;;;;;;;;;19.90;45.80;;;;;;5034153;28;19921;-54
2024/01/27 04:02:34;;;;;;;;;;;19.90;45.80;;;;;;5045400;28;19956;-58
2024/01/27 04:05:00;;;;;;;;;;;19.90;45.80;;;;;;5050155;28;19983;-57
2024/01/27 04:07:28;;;;;;;;;;;19.90;45.70;;;;;;5056388;28;19921;-57
2024/01/27 04:09:55;;;;;;;;;;;19.90;45.70;;;;;;5050976;28;19928;-58
2024/01/27 04:12:22;;;;;;;;;;;19.90;45.70;;;;;;5043851;28;19940;-58
2024/01/27 04:14:49;;;;;;;;;;;19.90;45.70;;;;;;5053110;28;19920;-57
2024/01/27 04:17:15;;;;;;;;;;;19.90;45.70;;;;;;5052757;28;19943;-58
2024/01/27 04:19:42;;;;;;;;;;;19.90;45.70;;;;;;5070660;28;19951;-57
2024/01/27 04:22:09;;;;;;;;;;;19.90;45.70;;;;;;5051621;28;19921;-58
2024/01/27 04:24:37;;;;;;;;;;;19.90;45.70;;;;;;5054247;28;19925;-58
2024/01/27 04:27:04;;;;;;;;;;;19.90;45.60;;;;;;5064449;28;19925;-58
2024/01/27 04:29:31;;;;;;;;;;;19.90;45.70;;;;;;5054796;28;19974;-56
2024/01/27 04:31:57;;;;;;;;;;;19.90;45.60;;;;;;5056455;28;19928;-57
2024/01/27 04:34:24;;;;;;;;;;;19.90;45.60;;;;;;5069908;28;20365;-58
2024/01/27 04:36:52;;;;;;;;;;;19.90;45.70;;;;;;5052407;28;19932;-54
2024/01/27 04:39:19;;;;;;;;;;;19.90;45.60;;;;;;5051395;28;19920;-55
2024/01/27 04:41:47;;;;;;;;;;;19.90;45.60;;;;;;5075163;28;19924;-56
2024/01/27 04:44:13;;;;;;;;;;;19.90;45.60;;;;;;5070709;28;19920;-56
2024/01/27 04:46:40;;;;;;;;;;;19.90;45.60;;;;;;5039165;28;19927;-56
2024/01/27 04:49:07;;;;;;;;;;;19.90;45.60;;;;;;5040289;28;19937;-55
2024/01/27 04:51:33;;;;;;;;;;;19.90;45.60;;;;;;5052735;28;19924;-52
2024/01/27 04:54:00;;;;;;;;;;;19.90;45.60;;;;;;5055295;28;19920;-52
2024/01/27 04:56:27;;;;;;;;;;;19.90;45.60;;;;;;5055769;28;20221;-55
2024/01/27 04:58:55;;;;;;;;;;;19.90;45.60;;;;;;5064614;28;19920;-55
2024/01/27 05:01:22;;;;;;;;;;;19.90;45.60;;;;;;5056167;28;19978;-57
2024/01/27 05:03:48;;;;;;;;;;;19.90;45.60;;;;;;5046962;28;19925;-56
2024/01/27 05:06:15;;;;;;;;;;;19.90;45.60;;;;;;5055436;28;19944;-57
2024/01/27 05:08:42;;;;;;;;;;;19.90;45.60;;;;;;5056810;28;19927;-56
2024/01/27 05:11:08;;;;;;;;;;;19.90;45.60;;;;;;5080662;28;19924;-55
2024/01/27 05:13:35;;;;;;;;;;;19.90;45.60;;;;;;5055921;28;19947;-56
2024/01/27 05:16:03;;;;;;;;;;;19.90;45.60;;;;;;5064132;28;19921;-55
2024/01/27 05:18:30;;;;;;;;;;;19.90;45.50;;;;;;5055369;28;19924;-56
2024/01/27 05:20:57;;;;;;;;;;;19.90;45.60;;;;;;5064165;28;20014;-55
2024/01/27 05:23:24;;;;;;;;;;;19.90;45.50;;;;;;5055730;28;19932;-55
2024/01/27 05:25:51;;;;;;;;;;;19.90;45.50;;;;;;5056838;28;19974;-57
2024/01/27 05:28:17;;;;;;;;;;;19.90;45.50;;;;;;5060260;28;19920;-56
2024/01/27 05:30:44;;;;;;;;;;;19.90;45.50;;;;;;5054972;28;19935;-56
2024/01/27 05:33:12;;;;;;;;;;;19.90;45.50;;;;;;5076243;28;19935;-56
2024/01/27 05:35:39;;;;;;;;;;;19.90;45.50;;;;;;5040449;28;19920;-57
2024/01/27 05:38:06;;;;;;;;;;;19.90;45.50;;;;;;5063773;28;19921;-55
2024/01/27 05:40:33;;;;;;;;;;;19.90;45.50;;;;;;5055488;28;19920;-56
2024/01/27 05:42:59;;;;;;;;;;;19.90;45.50;;;;;;5054529;28;19924;-56
2024/01/27 05:45:27;;;;;;;;;;;19.90;45.50;;;;;;5058780;28;19928;-55
2024/01/27 05:47:53;;;;;;;;;;;19.90;45.40;;;;;;5071037;28;20023;-56
2024/01/27 05:50:21;;;;;;;;;;;19.80;45.40;;;;;;5055263;28;19933;-55
2024/01/27 05:52:48;;;;;;;;;;;19.90;45.40;;;;;;5057098;28;19921;-57
2024/01/27 05:55:16;;;;;;;;;;;19.80;45.40;;;;;;5035338;28;19921;-56
2024/01/27 05:57:43;;;;;;;;;;;19.80;45.40;;;;;;5035229;28;19928;-55
2024/01/27 06:00:10;;;;;;;;;;;19.90;45.40;;;;;;5041162;28;19950;-57
2024/01/27 06:02:37;;;;;;;;;;;19.80;45.30;;;;;;5066493;28;19931;-57
2024/01/27 06:05:04;;;;;;;;;;;19.80;45.30;;;;;;5046656;28;19932;-57
2024/01/27 06:07:32;;;;;;;;;;;19.80;45.30;;;;;;5048870;28;19920;-55
2024/01/27 06:09:59;;;;;;;;;;;19.80;45.30;;;;;;5055216;28;20031;-58
2024/01/27 06:12:25;;;;;;;;;;;19.80;45.30;;;;;;5071322;28;20380;-57
2024/01/27 06:14:52;;;;;;;;;;;19.80;45.30;;;;;;5056211;28;19931;-56
2024/01/27 06:17:19;;;;;;;;;;;19.80;45.30;;;;;;5051598;28;19920;-57
2024/01/27 06:19:46;;;;;;;;;;;19.80;45.30;;;;;;5051471;28;19943;-56
2024/01/27 06:22:13;;;;;;;;;;;19.90;45.30;;;;;;5072349;28;19956;-57
2024/01/27 06:24:44;;;;;;;;;;;19.80;45.20;;;;;;5054307;28;20014;-57
2024/01/27 06:27:11;;;;;;;;;;;19.80;45.20;;;;;;5072278;28;19960;-57
2024/01/27 06:29:38;;;;;;;;;;;19.80;45.20;;;;;;5055917;28;19967;-57
2024/01/27 06:32:05;;;;;;;;;;;19.80;45.20;;;;;;5073387;28;19920;-57
2024/01/27 06:34:32;;;;;;;;;;;19.80;45.20;;;;;;5053663;28;19982;-56
2024/01/27 06:36:59;;;;;;;;;;;19.80;45.20;;;;;;5057723;28;19944;-57
2024/01/27 06:39:26;;;;;;;;;;;19.80;45.20;;;;;;5052252;28;19924;-58
2024/01/27 06:41:54;;;;;;;;;;;19.90;45.30;;;;;;5053643;28;19971;-56
2024/01/27 06:44:21;;;;;;;;;;;19.80;45.20;;;;;;5052589;28;19928;-57
2024/01/27 06:46:49;;;;;;;;;;;19.80;45.20;;;;;;5050472;28;19920;-55
2024/01/27 06:49:16;;;;;;;;;;;19.80;45.20;;;;;;5052295;28;19925;-58
2024/01/27 06:51:44;;;;;;;;;;;19.80;45.20;;;;;;5034281;28;20405;-58
2024/01/27 06:54:10;;;;;;;;;;;19.90;45.20;;;;;;5049871;28;19927;-56
2024/01/27 06:56:38;;;;;;;;;;;19.90;45.20;;;;;;5060902;28;19920;-57
2024/01/27 06:59:06;;;;;;;;;;;19.80;45.20;;;;;;5071380;28;19925;-57
2024/01/27 07:01:33;;;;;;;;;;;19.80;45.20;;;;;;5054010;28;19966;-57
2024/01/27 07:03:59;;;;;;;;;;;19.80;45.10;;;;;;5071381;28;19927;-56
2024/01/27 07:06:26;;;;;;;;;;;19.80;45.10;;;;;;5053614;28;19942;-56
2024/01/27 07:08:53;;;;;;;;;;;19.80;45.10;;;;;;5057409;28;19937;-57
2024/01/27 07:11:19;;;;;;;;;;;19.80;45.10;;;;;;5078800;28;19970;-55
2024/01/27 07:13:46;;;;;;;;;;;19.80;45.10;;;;;;5055527;28;19928;-57
2024/01/27 07:16:14;;;;;;;;;;;19.80;45.10;;;;;;5059383;28;20007;-57
2024/01/27 07:18:41;;;;;;;;;;;19.80;45.10;;;;;;5033525;28;19927;-58
2024/01/27 07:21:08;;;;;;;;;;;19.80;45.10;;;;;;5042747;28;19921;-58
2024/01/27 07:23:35;;;;;;;;;;;19.80;45.10;;;;;;5053837;28;19920;-58
2024/01/27 07:26:03;;;;;;;;;;;19.80;45.10;;;;;;5052579;28;19921;-59
2024/01/27 07:28:29;;;;;;;;;;;19.80;45.10;;;;;;5073317;28;19920;-57
2024/01/27 07:30:56;;;;;;;;;;;19.80;45.00;;;;;;5072467;28;20296;-56
2024/01/27 07:33:24;;;;;;;;;;;19.80;45.00;;;;;;5070923;28;19944;-56
2024/01/27 07:35:51;;;;;;;;;;;19.80;45.10;;;;;;5053323;28;19928;-59
2024/01/27 07:38:18;;;;;;;;;;;19.80;45.10;;;;;;5053148;28;19931;-57
2024/01/27 07:40:45;;;;;;;;;;;19.80;45.00;;;;;;5071146;28;19928;-56
2024/01/27 07:43:12;;;;;;;;;;;19.80;45.10;;;;;;5052264;28;19920;-56
2024/01/27 07:45:38;;;;;;;;;;;19.90;45.10;;;;;;5065354;28;19925;-55
2024/01/27 07:48:05;;;;;;;;;;;19.80;45.10;;;;;;5017011;28;20366;-56
2024/01/27 07:50:34;;;;;;;;;;;19.80;45.00;;;;;;5033271;28;19956;-57
2024/01/27 07:53:00;;;;;;;;;;;19.80;45.10;;;;;;5067169;28;19924;-56
2024/01/27 07:55:27;;;;;;;;;;;19.80;45.00;;;;;;5053108;28;19920;-56
2024/01/27 07:57:54;;;;;;;;;;;19.80;45.10;;;;;;5056700;28;19931;-56
2024/01/27 08:00:21;;;;;;;;;;;19.80;45.00;;;;;;5060710;28;19932;-57
2024/01/27 08:02:47;;;;;;;;;;;19.80;45.00;;;;;;5044003;28;19925;-56
2024/01/27 08:05:14;;;;;;;;;;;19.80;45.00;;;;;;5050593;28;19929;-56
2024/01/27 08:07:42;;;;;;;;;;;19.80;45.00;;;;;;5038305;28;19947;-55
2024/01/27 08:10:10;;;;;;;;;;;19.80;45.00;;;;;;5070949;28;19924;-56
2024/01/27 08:12:37;;;;;;;;;;;19.80;45.00;;;;;;5070878;28;20015;-59
2024/01/27 08:15:05;;;;;;;;;;;19.80;45.00;;;;;;5052893;28;19924;-58
2024/01/27 08:17:31;;;;;;;;;;;19.80;45.00;;;;;;5051792;28;19927;-57
2024/01/27 08:19:59;;;;;;;;;;;19.80;45.00;;;;;;5053383;28;19927;-57
2024/01/27 08:22:25;;;;;;;;;;;19.80;45.00;;;;;;5052782;28;19924;-58
2024/01/27 08:24:54;;;;;;;;;;;19.80;45.00;;;;;;5074361;28;19954;-58
2024/01/27 08:27:20;;;;;;;;;;;19.80;45.00;;;;;;5052789;28;20015;-58
2024/01/27 08:29:47;;;;;;;;;;;19.80;45.00;;;;;;5036850;28;19925;-58
2024/01/27 08:32:14;;;;;;;;;;;19.90;45.10;;;;;;5063474;28;19931;-58
2024/01/27 08:34:41;;;;;;;;;;;19.80;45.00;;;;;;5047661;28;19929;-58
2024/01/27 08:37:14;;;;;;;;;;;19.80;45.00;;;;;;5050277;28;19932;-58
2024/01/27 08:39:41;;;;;;;;;;;19.80;45.10;;;;;;5042961;28;19925;-59
2024/01/27 08:42:09;;;;;;;;;;;19.80;45.10;;;;;;5053888;28;19927;-58
2024/01/27 08:44:36;;;;;;;;;;;19.80;45.10;;;;;;5051487;28;19920;-56
2024/01/27 08:47:03;;;;;;;;;;;19.80;45.10;;;;;;5070344;28;19933;-52
2024/01/27 08:49:30;;;;;;;;;;;19.80;45.10;;;;;;5047488;28;19920;-48
2024/01/27 08:51:56;;;;;;;;;;;19.80;45.10;;;;;;5050709;28;19921;-55
2024/01/27 08:54:23;;;;;;;;;;;19.80;44.80;;;;;;5053790;28;19939;-54
2024/01/27 08:56:50;;;;;;;;;;;19.90;44.50;;;;;;5048634;28;19946;-54
2024/01/27 08:59:18;;;;;;;;;;;19.90;44.20;;;;;;5052666;28;19966;-51
2024/01/27 09:01:45;;;;;;;;;;;19.80;43.90;;;;;;5071686;28;19924;-51
2024/01/27 09:04:11;;;;;;;;;;;19.80;43.70;;;;;;5055901;28;19925;-47
2024/01/27 09:06:38;;;;;;;;;;;19.80;43.50;;;;;;5053955;28;19920;-49
2024/01/27 09:09:05;;;;;;;;;;;19.80;43.50;;;;;;5071541;28;19931;-49
2024/01/27 09:11:33;;;;;;;;;;;19.80;42.60;;;;;;5065121;28;19970;-53
2024/01/27 09:14:00;;;;;;;;;;;19.70;40.90;;;;;;5057634;28;20019;-49
2024/01/27 09:16:28;;;;;;;;;;;19.70;39.60;;;;;;5054390;28;19933;-51
2024/01/27 09:18:55;;;;;;;;;;;19.60;38.70;;;;;;5072425;28;20380;-51
2024/01/27 09:21:27;;;;;;;;;;;19.50;38.10;;;;;;5052590;28;19921;-51
2024/01/27 09:23:54;;;;;;;;;;;19.40;38.30;;;;;;5067443;28;19927;-52
2024/01/27 09:26:22;;;;;;;;;;;19.40;38.80;;;;;;5051389;28;20015;-55
2024/01/27 09:28:53;;;;;;;;;;;19.30;39.10;;;;;;5052632;28;19973;-54
2024/01/27 09:31:21;;;;;;;;;;;19.30;39.50;;;;;;5053165;28;20343;-47
2024/01/27 09:33:50;;;;;;;;;;;19.30;39.70;;;;;;5054304;28;19927;-46
2024/01/27 09:36:17;;;;;;;;;;;19.30;39.90;;;;;;5054874;28;19924;-49
2024/01/27 09:38:43;;;;;;;;;;;19.30;40.00;;;;;;5070538;28;19974;-50
2024/01/27 09:41:10;;;;;;;;;;;19.30;40.20;;;;;;5072488;28;19986;-55
2024/01/27 09:43:37;;;;;;;;;;;19.30;40.30;;;;;;5055622;28;19970;-47
2024/01/27 09:46:04;;;;;;;;;;;19.30;40.40;;;;;;5069537;28;19920;-52
2024/01/27 09:48:31;;;;;;;;;;;19.30;40.50;;;;;;5063164;28;19932;-46
2024/01/27 09:50:59;;;;;;;;;;;19.30;40.60;;;;;;5053761;28;19924;-48
2024/01/27 09:53:26;;;;;;;;;;;19.30;40.70;;;;;;5055408;28;19931;-47
2024/01/27 09:55:53;;;;;;;;;;;19.30;40.70;;;;;;5053098;28;19920;-48
2024/01/27 09:58:20;;;;;;;;;;;19.30;40.80;;;;;;5054273;28;19928;-49
2024/01/27 10:00:47;;;;;;;;;;;19.30;40.80;;;;;;5052658;28;20113;-49
2024/01/27 10:03:13;;;;;;;;;;;19.30;40.90;;;;;;5051469;28;19978;-52
2024/01/27 10:05:40;;;;;;;;;;;19.30;40.90;;;;;;5070368;28;19921;-49
2024/01/27 10:08:09;;;;;;;;;;;19.30;41.00;;;;;;5071211;28;19925;-50
2024/01/27 10:10:35;;;;;;;;;;;19.30;41.10;;;;;;5055866;28;20416;-52
2024/01/27 10:13:02;;;;;;;;;;;19.30;41.10;;;;;;5050751;28;19920;-51
2024/01/27 10:15:29;;;;;;;;;;;19.30;41.10;;;;;;5052579;28;19950;-45
2024/01/27 10:18:05;;;;;;;;;;;19.30;41.00;;;;;;5053553;28;19981;-52
2024/01/27 10:20:31;;;;;;;;;;;19.30;41.10;;;;;;5051885;28;19920;-59
2024/01/27 10:22:58;;;;;;;;;;;19.30;41.10;;;;;;5057818;28;20273;-48
2024/01/27 10:25:26;;;;;;;;;;;19.30;41.00;;;;;;5066683;28;19925;-51
2024/01/27 10:27:57;;;;;;;;;;;19.30;41.00;;;;;;5068512;28;19920;-50
2024/01/27 10:30:24;;;;;;;;;;;19.30;41.00;;;;;;5055730;28;19921;-55
2024/01/27 10:32:57;;;;;;;;;;;19.30;41.00;;;;;;5073379;28;19924;-52
2024/01/27 10:35:24;;;;;;;;;;;19.30;41.00;;;;;;5053746;28;19920;-50
2024/01/27 10:37:52;;;;;;;;;;;19.30;41.10;;;;;;5047061;28;20361;-53
2024/01/27 10:40:19;;;;;;;;;;;19.30;41.00;;;;;;5054668;28;19964;-52
2024/01/27 10:42:47;;;;;;;;;;;19.30;41.10;;;;;;5074332;28;19927;-50
2024/01/27 10:45:14;;;;;;;;;;;19.30;41.10;;;;;;5068948;28;19963;-51
2024/01/27 10:47:41;;;;;;;;;;;19.20;41.10;;;;;;5052901;28;19932;-50
2024/01/27 10:50:09;;;;;;;;;;;19.30;41.20;;;;;;5056173;28;19932;-52
2024/01/27 10:52:38;;;;;;;;;;;19.30;41.20;;;;;;5063330;28;19920;-50
2024/01/27 10:55:07;;;;;;;;;;;19.30;41.20;;;;;;5052023;28;19940;-49
2024/01/27 10:57:33;;;;;;;;;;;19.30;41.20;;;;;;5068050;28;19932;-48
2024/01/27 11:00:03;;;;;;;;;;;19.30;41.20;;;;;;5055601;28;19921;-47
2024/01/27 11:02:32;;;;;;;;;;;19.20;41.10;;;;;;5051578;28;19920;-46
2024/01/27 11:04:59;;;;;;;;;;;19.20;41.20;;;;;;5069366;28;20373;-51
2024/01/27 11:07:26;;;;;;;;;;;19.30;41.20;;;;;;5068878;28;20366;-56
2024/01/27 11:09:53;;;;;;;;;;;19.20;41.10;;;;;;5066644;28;19924;-46
2024/01/27 11:12:20;;;;;;;;;;;19.30;41.20;;;;;;5068889;28;19950;-50
2024/01/27 11:14:47;;;;;;;;;;;19.20;41.20;;;;;;5057245;28;20045;-49
2024/01/27 11:17:15;;;;;;;;;;;19.20;41.20;;;;;;5072357;28;19925;-47
2024/01/27 11:19:42;;;;;;;;;;;19.20;41.20;;;;;;5064107;28;20032;-54
2024/01/27 11:22:09;;;;;;;;;;;19.30;41.20;;;;;;5052539;28;19920;-47
2024/01/27 11:24:36;;;;;;;;;;;19.30;41.30;;;;;;5051136;28;19924;-48
2024/01/27 11:27:03;;;;;;;;;;;19.20;41.20;;;;;;5055811;28;19920;-53
2024/01/27 11:29:31;;;;;;;;;;;19.30;41.30;;;;;;5065557;28;20320;-45
2024/01/27 11:31:58;;;;;;;;;;;19.20;41.20;;;;;;5049201;28;20250;-53
2024/01/27 11:34:26;;;;;;;;;;;19.30;41.30;;;;;;5052651;28;19920;-53
2024/01/27 11:36:53;;;;;;;;;;;19.20;41.20;;;;;;5051712;28;19954;-49
2024/01/27 11:39:24;;;;;;;;;;;19.30;41.30;;;;;;5070993;28;19936;-55
2024/01/27 11:41:50;;;;;;;;;;;19.20;41.30;;;;;;5049763;28;19974;-52
2024/01/27 11:44:18;;;;;;;;;;;19.30;41.60;;;;;;5069499;28;19929;-57
2024/01/27 11:46:45;;;;;;;;;;;19.20;41.70;;;;;;5048257;28;20008;-52
2024/01/27 11:49:13;;;;;;;;;;;19.30;42.00;;;;;;5057170;28;20329;-50
2024/01/27 11:51:41;;;;;;;;;;;19.30;42.20;;;;;;5068694;28;19933;-48
2024/01/27 11:54:08;;;;;;;;;;;19.30;42.30;;;;;;5069964;28;20025;-50
2024/01/27 11:56:35;;;;;;;;;;;19.30;42.50;;;;;;5050195;28;19925;-52
2024/01/27 11:59:02;;;;;;;;;;;19.40;42.70;;;;;;5070271;28;19928;-53
2024/01/27 12:01:28;;;;;;;;;;;19.40;42.80;;;;;;5056233;28;20324;-59
2024/01/27 12:03:55;;;;;;;;;;;19.40;41.20;;;;;;5064142;28;19991;-51
2024/01/27 12:06:22;;;;;;;;;;;19.30;38.30;;;;;;5081653;28;19928;-51
2024/01/27 12:08:50;;;;;;;;;;;19.30;37.10;;;;;;5077648;28;19931;-56
2024/01/27 12:11:17;;;;;;;;;;;19.10;36.50;;;;;;5058872;28;19921;-56
2024/01/27 12:13:43;;;;;;;;;;;19.00;36.10;;;;;;5074205;28;19924;-55
2024/01/27 12:16:10;;;;;;;;;;;18.90;36.80;;;;;;5073617;28;19947;-54
2024/01/27 12:18:37;;;;;;;;;;;18.80;37.80;;;;;;5064894;28;19948;-57
2024/01/27 12:21:04;;;;;;;;;;;18.80;39.00;;;;;;5074394;28;19953;-55
2024/01/27 12:23:30;;;;;;;;;;;18.80;39.70;;;;;;5056559;28;19920;-53
2024/01/27 12:25:59;;;;;;;;;;;18.80;40.20;;;;;;5064827;28;19924;-57
2024/01/27 12:28:25;;;;;;;;;;;18.80;40.60;;;;;;5073584;28;19927;-58
2024/01/27 12:30:53;;;;;;;;;;;18.90;41.00;;;;;;5046467;28;19920;-54
2024/01/27 12:33:22;;;;;;;;;;;18.90;41.30;;;;;;5062995;28;19936;-54
2024/01/27 12:35:49;;;;;;;;;;;19.00;41.50;;;;;;5069801;28;19927;-56
2024/01/27 12:38:17;;;;;;;;;;;19.00;41.60;;;;;;5056639;28;19924;-56
2024/01/27 12:40:44;;;;;;;;;;;19.00;41.70;;;;;;5056013;28;20344;-57
2024/01/27 12:43:12;;;;;;;;;;;19.10;41.90;;;;;;5060066;28;19925;-54
2024/01/27 12:45:39;;;;;;;;;;;19.10;41.90;;;;;;5055329;28;19921;-51
2024/01/27 12:48:06;;;;;;;;;;;19.10;42.00;;;;;;5065193;28;20022;-52
2024/01/27 12:50:33;;;;;;;;;;;19.20;42.20;;;;;;5059254;28;19920;-54
2024/01/27 12:53:00;;;;;;;;;;;19.20;42.20;;;;;;5063538;28;19964;-55
2024/01/27 12:55:27;;;;;;;;;;;19.30;42.30;;;;;;5058245;28;19921;-56
2024/01/27 12:57:53;;;;;;;;;;;19.30;42.40;;;;;;5061649;28;19974;-53
2024/01/27 13:00:22;;;;;;;;;;;19.30;42.40;;;;;;5076767;28;19931;-50
2024/01/27 13:02:49;;;;;;;;;;;19.30;42.50;;;;;;5056435;28;19960;-53
2024/01/27 13:05:16;;;;;;;;;;;19.30;42.50;;;;;;5073152;28;19928;-51
2024/01/27 13:07:45;;;;;;;;;;;19.30;42.60;;;;;;5072965;28;19970;-50
2024/01/27 13:10:11;;;;;;;;;;;19.40;42.70;;;;;;5059631;28;19920;-54
2024/01/27 13:12:38;;;;;;;;;;;19.40;42.80;;;;;;5084492;28;20412;-54
2024/01/27 13:15:05;;;;;;;;;;;19.40;42.80;;;;;;5072971;28;19978;-50
2024/01/27 13:17:35;;;;;;;;;;;19.40;42.90;;;;;;5072713;28;19986;-55
2024/01/27 13:20:02;;;;;;;;;;;19.40;42.90;;;;;;5075649;28;19936;-57
2024/01/27 13:22:28;;;;;;;;;;;19.40;42.90;;;;;;5069491;28;19970;-56
2024/01/27 13:24:57;;;;;;;;;;;19.40;43.00;;;;;;5072090;28;20354;-57
2024/01/27 13:27:24;;;;;;;;;;;19.40;43.00;;;;;;5055248;28;19931;-57
2024/01/27 13:29:51;;;;;;;;;;;19.50;43.10;;;;;;5058214;28;19950;-50
2024/01/27 13:32:17;;;;;;;;;;;19.50;43.10;;;;;;5055528;28;19928;-56
2024/01/27 13:34:47;;;;;;;;;;;19.50;43.20;;;;;;5058329;28;19924;-57
2024/01/27 13:37:15;;;;;;;;;;;19.50;43.20;;;;;;5053195;28;19927;-56
2024/01/27 13:39:42;;;;;;;;;;;19.50;43.20;;;;;;5058130;28;19920;-58
2024/01/27 13:42:09;;;;;;;;;;;19.50;43.20;;;;;;5071256;28;19931;-55
2024/01/27 13:44:36;;;;;;;;;;;19.50;43.20;;;;;;5056289;28;19921;-53
2024/01/27 13:47:03;;;;;;;;;;;19.50;43.20;;;;;;5054355;28;20280;-55
2024/01/27 13:49:30;;;;;;;;;;;19.60;43.30;;;;;;5056091;28;19920;-57
2024/01/27 13:51:58;;;;;;;;;;;19.50;43.30;;;;;;5069394;28;19958;-55
2024/01/27 13:54:25;;;;;;;;;;;19.60;43.40;;;;;;5057700;28;19920;-55
2024/01/27 13:56:51;;;;;;;;;;;19.50;43.30;;;;;;5053595;28;19920;-55
2024/01/27 13:59:19;;;;;;;;;;;19.50;43.30;;;;;;5058489;28;19927;-55
2024/01/27 14:01:46;;;;;;;;;;;19.60;43.50;;;;;;5071857;28;19924;-55
2024/01/27 14:04:12;;;;;;;;;;;19.60;43.50;;;;;;5056548;28;19920;-53
2024/01/27 14:06:39;;;;;;;;;;;19.60;43.50;;;;;;5071537;28;19932;-56
2024/01/27 14:09:07;;;;;;;;;;;19.60;44.10;;;;;;5054755;28;19977;-56
2024/01/27 14:11:34;;;;;;;;;;;19.60;43.50;;;;;;5079273;28;20227;-50
2024/01/27 14:14:01;;;;;;;;;;;19.60;43.50;;;;;;5063072;28;19928;-53
2024/01/27 14:16:28;;;;;;;;;;;19.60;43.50;;;;;;5063908;28;20494;-51